Time;durP1;ratioP1;P1;durP2;ratioP2;P2;SDS_P1;SDS_P2;PMS_P1;PMS_P2;Temp;Humidity;BMP_temperature;BMP_pressure;BME280_temperature;BME280_humidity;BME280_pressure;Samples;Min_cycle;Max_cycle;Signal;HPM_P1;HPM_P2
2023/05/11 00:02:04;;;;;;;7.25;2.30;;;15.40;99.90;;;;;;5050275;28;20060;-60
2023/05/11 00:04:32;;;;;;;8.90;1.92;;;15.60;99.90;;;;;;5048156;28;20112;-60
2023/05/11 00:06:59;;;;;;;5.97;2.13;;;15.70;99.90;;;;;;5049644;28;20036;-59
2023/05/11 00:09:27;;;;;;;4.35;2.50;;;15.90;99.90;;;;;;5050070;28;20426;-60
2023/05/11 00:11:55;;;;;;;6.90;2.88;;;16.00;99.90;;;;;;5049668;28;20021;-60
2023/05/11 00:14:22;;;;;;;6.75;2.42;;;16.10;99.90;;;;;;5049167;28;20025;-60
2023/05/11 00:16:50;;;;;;;12.55;2.65;;;16.20;99.90;;;;;;5049870;28;20017;-60
2023/05/11 00:19:17;;;;;;;8.27;2.10;;;16.30;99.90;;;;;;5049266;28;20134;-59
2023/05/11 00:21:44;;;;;;;4.90;2.20;;;16.50;99.90;;;;;;5049719;28;20032;-60
2023/05/11 00:24:12;;;;;;;7.40;2.13;;;16.60;99.90;;;;;;5049677;28;20025;-59
2023/05/11 00:26:39;;;;;;;6.32;2.08;;;16.70;99.90;;;;;;5048306;28;20029;-60
2023/05/11 00:29:07;;;;;;;12.95;2.20;;;16.90;99.90;;;;;;5036658;28;20465;-60
2023/05/11 00:31:34;;;;;;;10.40;2.15;;;17.00;99.90;;;;;;5050004;28;20021;-60
2023/05/11 00:34:02;;;;;;;6.22;2.08;;;17.10;99.90;;;;;;5048302;28;20125;-60
2023/05/11 00:36:29;;;;;;;4.47;1.70;;;17.20;99.90;;;;;;5031159;28;20040;-60
2023/05/11 00:38:57;;;;;;;5.93;1.85;;;17.30;99.90;;;;;;5061495;28;20029;-60
2023/05/11 00:41:24;;;;;;;4.75;2.80;;;17.30;99.90;;;;;;5048169;28;20014;-59
2023/05/11 00:43:52;;;;;;;5.85;1.98;;;17.30;99.90;;;;;;5043855;28;20141;-59
2023/05/11 00:46:20;;;;;;;6.05;2.25;;;17.40;99.90;;;;;;5037250;28;20030;-59
2023/05/11 00:48:47;;;;;;;12.60;2.80;;;17.60;99.90;;;;;;5041730;28;20094;-59
2023/05/11 00:51:15;;;;;;;10.77;2.40;;;17.80;99.90;;;;;;5041134;28;20017;-59
2023/05/11 00:53:43;;;;;;;6.20;1.77;;;18.00;99.90;;;;;;5037583;28;20021;-58
2023/05/11 00:56:10;;;;;;;19.98;2.80;;;18.10;99.90;;;;;;5038219;28;20025;-59
2023/05/11 00:58:38;;;;;;;6.07;1.83;;;18.20;99.90;;;;;;5012861;28;20060;-59
2023/05/11 01:01:06;;;;;;;6.47;1.85;;;18.30;99.90;;;;;;5037028;28;20037;-62
2023/05/11 01:03:35;;;;;;;8.18;1.95;;;18.30;99.90;;;;;;5036595;28;20028;-58
2023/05/11 01:06:12;;;;;;;10.68;1.70;;;18.20;99.90;;;;;;5035477;28;20040;-59
2023/05/11 01:09:00;;;;;;;9.05;1.50;;;18.30;99.90;;;;;;5020421;28;20406;-59
2023/05/11 01:11:42;;;;;;;5.97;1.50;;;18.40;99.90;;;;;;5036547;28;20040;-60
2023/05/11 01:14:34;;;;;;;10.43;2.08;;;18.50;99.90;;;;;;5034117;28;20083;-61
2023/05/11 01:17:18;;;;;;;6.82;1.77;;;18.60;99.90;;;;;;5045253;28;20025;-59
2023/05/11 01:19:56;;;;;;;7.20;1.73;;;18.80;99.90;;;;;;5039621;28;20028;-60
2023/05/11 01:22:50;;;;;;;11.32;1.85;;;19.00;99.90;;;;;;5028459;28;20403;-60
2023/05/11 01:25:39;;;;;;;5.50;1.30;;;19.00;99.90;;;;;;5043653;28;20025;-60
2023/05/11 01:28:40;;;;;;;6.55;2.17;;;19.30;99.90;;;;;;5044772;28;20045;-61
2023/05/11 01:31:10;;;;;;;10.35;1.42;;;19.40;99.90;;;;;;5045543;28;20029;-60
2023/05/11 01:34:00;;;;;;;6.72;1.85;;;19.50;99.90;;;;;;5029497;28;20024;-60
2023/05/11 01:36:33;;;;;;;6.10;1.10;;;19.50;99.90;;;;;;5036627;28;20037;-58
2023/05/11 01:39:08;;;;;;;6.27;1.77;;;19.40;99.90;;;;;;5046325;28;20029;-59
2023/05/11 01:41:37;;;;;;;3.55;1.63;;;19.40;99.90;;;;;;5040974;28;20515;-59
2023/05/11 01:44:09;;;;;;;6.57;1.50;;;19.50;99.90;;;;;;5039459;28;20055;-58
2023/05/11 01:46:37;;;;;;;3.90;1.35;;;19.60;99.90;;;;;;5020643;28;20573;-59
2023/05/11 01:49:07;;;;;;;7.35;1.38;;;19.80;99.90;;;;;;5050418;28;20674;-58
2023/05/11 01:51:37;;;;;;;4.63;1.00;;;19.80;99.90;;;;;;5045170;28;20031;-58
2023/05/11 01:54:08;;;;;;;8.20;1.30;;;20.00;99.90;;;;;;5043853;28;20546;-58
2023/05/11 01:56:38;;;;;;;4.03;1.38;;;20.10;99.90;;;;;;5030829;28;20780;-58
2023/05/11 01:59:06;;;;;;;7.93;1.55;;;20.20;99.90;;;;;;5025783;28;20434;-59
2023/05/11 02:01:35;;;;;;;4.90;1.13;;;20.20;99.90;;;;;;5042684;28;20058;-59
2023/05/11 02:04:04;;;;;;;5.20;1.40;;;20.20;99.90;;;;;;5027123;28;20154;-57
2023/05/11 02:06:33;;;;;;;5.22;1.48;;;20.30;99.90;;;;;;5044016;28;20021;-58
2023/05/11 02:09:02;;;;;;;6.90;1.60;;;20.20;99.90;;;;;;5027447;28;20029;-59
2023/05/11 02:11:31;;;;;;;7.45;1.60;;;20.20;99.90;;;;;;5043638;28;20017;-58
2023/05/11 02:13:59;;;;;;;6.50;2.13;;;20.30;99.90;;;;;;5048555;28;20060;-58
2023/05/11 02:16:28;;;;;;;6.78;1.67;;;20.30;99.90;;;;;;5047764;28;20025;-59
2023/05/11 02:18:57;;;;;;;7.25;1.92;;;20.40;99.90;;;;;;5043283;28;20699;-58
2023/05/11 02:21:26;;;;;;;6.72;2.17;;;20.50;99.90;;;;;;5046932;28;20436;-58
2023/05/11 02:23:55;;;;;;;6.03;1.67;;;20.60;99.90;;;;;;5019857;28;20033;-59
2023/05/11 02:26:23;;;;;;;7.93;1.58;;;20.70;99.90;;;;;;5047194;28;20082;-59
2023/05/11 02:28:50;;;;;;;3.47;1.30;;;20.70;99.90;;;;;;5047684;28;20079;-59
2023/05/11 02:31:23;;;;;;;6.80;1.60;;;20.60;99.90;;;;;;5030417;28;20029;-58
2023/05/11 02:33:52;;;;;;;5.38;1.20;;;20.60;99.90;;;;;;5039910;28;20025;-58
2023/05/11 02:36:23;;;;;;;4.70;1.30;;;20.60;99.90;;;;;;5042324;28;20028;-58
2023/05/11 02:38:54;;;;;;;4.57;1.45;;;20.60;99.90;;;;;;5048216;28;20021;-59
2023/05/11 02:41:25;;;;;;;6.68;1.45;;;20.60;99.90;;;;;;5047996;28;20024;-59
2023/05/11 02:43:56;;;;;;;9.20;2.28;;;20.70;99.90;;;;;;5040500;28;20082;-58
2023/05/11 02:46:31;;;;;;;3.65;1.27;;;20.90;99.90;;;;;;5022189;28;20447;-60
2023/05/11 02:49:02;;;;;;;4.53;1.00;;;21.00;99.90;;;;;;5044863;28;20576;-61
2023/05/11 02:51:36;;;;;;;3.95;1.73;;;21.20;99.90;;;;;;5050435;28;20029;-61
2023/05/11 02:54:05;;;;;;;5.70;1.33;;;21.20;99.90;;;;;;5043532;28;20191;-61
2023/05/11 02:56:33;;;;;;;3.80;1.08;;;21.30;99.90;;;;;;5047696;28;20033;-60
2023/05/11 02:59:01;;;;;;;3.67;0.90;;;21.30;99.90;;;;;;5036879;28;20029;-60
2023/05/11 03:01:30;;;;;;;8.13;1.20;;;21.50;99.90;;;;;;5047452;28;20048;-60
2023/05/11 03:03:57;;;;;;;7.43;1.10;;;21.60;99.90;;;;;;5033250;28;20401;-59
2023/05/11 03:06:25;;;;;;;3.55;1.00;;;21.50;99.90;;;;;;5041045;28;20017;-59
2023/05/11 03:08:53;;;;;;;2.20;0.90;;;21.50;99.90;;;;;;5040555;28;20025;-59
2023/05/11 03:11:21;;;;;;;7.22;1.42;;;21.30;99.40;;;;;;5035010;28;20096;-59
2023/05/11 03:13:49;;;;;;;3.40;1.10;;;21.00;99.90;;;;;;5026134;28;20036;-59
2023/05/11 03:16:17;;;;;;;2.83;1.20;;;20.90;99.90;;;;;;5014261;28;20568;-59
2023/05/11 03:18:45;;;;;;;5.35;1.48;;;20.90;99.90;;;;;;5043458;28;20017;-59
2023/05/11 03:21:15;;;;;;;4.13;1.30;;;21.00;99.90;;;;;;5029415;28;20033;-59
2023/05/11 03:23:44;;;;;;;7.07;1.17;;;21.10;99.90;;;;;;5043170;28;20018;-59
2023/05/11 03:26:13;;;;;;;6.78;1.58;;;21.20;99.90;;;;;;5038348;28;20115;-59
2023/05/11 03:28:43;;;;;;;5.35;1.35;;;21.20;99.90;;;;;;5027893;28;20029;-60
2023/05/11 03:31:10;;;;;;;4.18;1.10;;;21.30;98.20;;;;;;5033152;28;20045;-59
2023/05/11 03:33:38;;;;;;;3.30;0.80;;;21.40;97.00;;;;;;5041179;28;20024;-59
2023/05/11 03:36:08;;;;;;;4.93;1.20;;;21.40;96.20;;;;;;5038525;28;20039;-65
2023/05/11 03:38:36;;;;;;;3.42;1.10;;;21.50;96.40;;;;;;5047804;28;20064;-61
2023/05/11 03:41:04;;;;;;;4.40;1.08;;;21.30;96.40;;;;;;5047552;28;20120;-59
2023/05/11 03:43:34;;;;;;;8.70;1.35;;;21.20;94.60;;;;;;5042732;28;20036;-59
2023/05/11 03:46:03;;;;;;;4.75;1.08;;;21.00;97.60;;;;;;5046599;28;20056;-60
2023/05/11 03:48:31;;;;;;;3.65;1.10;;;21.00;97.00;;;;;;5046835;28;20041;-58
2023/05/11 03:50:59;;;;;;;6.25;1.42;;;21.00;97.00;;;;;;5048450;28;20103;-58
2023/05/11 03:53:27;;;;;;;5.75;0.98;;;20.90;96.20;;;;;;5040416;28;20033;-60
2023/05/11 03:55:54;;;;;;;2.53;1.10;;;20.70;95.40;;;;;;5048756;28;20053;-59
2023/05/11 03:58:23;;;;;;;7.97;1.13;;;20.60;96.50;;;;;;5036150;28;20100;-59
2023/05/11 04:00:50;;;;;;;2.47;0.75;;;20.60;96.00;;;;;;5034080;28;20030;-58
2023/05/11 04:03:18;;;;;;;5.25;1.35;;;20.60;95.70;;;;;;5022921;28;20033;-59
2023/05/11 04:05:45;;;;;;;4.55;0.90;;;20.60;94.40;;;;;;5043712;28;20029;-60
2023/05/11 04:08:14;;;;;;;3.42;1.23;;;20.70;93.70;;;;;;5024292;28;20124;-59
2023/05/11 04:10:41;;;;;;;1.65;0.60;;;20.70;95.00;;;;;;5038997;28;20091;-59
2023/05/11 04:13:08;;;;;;;4.90;1.08;;;20.80;93.10;;;;;;5028738;28;20481;-61
2023/05/11 04:15:36;;;;;;;3.80;0.57;;;20.80;94.00;;;;;;5045698;28;20022;-63
2023/05/11 04:18:03;;;;;;;3.00;0.70;;;20.80;92.70;;;;;;5041104;28;20064;-59
2023/05/11 04:20:31;;;;;;;2.70;0.68;;;20.80;93.30;;;;;;5042922;28;20930;-60
2023/05/11 04:22:58;;;;;;;2.63;0.70;;;20.80;92.20;;;;;;5045566;28;20120;-59
2023/05/11 04:25:26;;;;;;;2.30;0.68;;;20.80;92.30;;;;;;5044720;28;20570;-60
2023/05/11 04:27:53;;;;;;;1.80;0.57;;;20.80;91.90;;;;;;5039890;28;20107;-60
2023/05/11 04:30:21;;;;;;;3.13;0.90;;;20.70;91.20;;;;;;5038773;28;20021;-63
2023/05/11 04:32:48;;;;;;;2.30;0.90;;;20.70;90.40;;;;;;5036999;28;20538;-59
2023/05/11 04:35:16;;;;;;;4.30;0.80;;;20.60;92.50;;;;;;5028832;28;20030;-59
2023/05/11 04:37:43;;;;;;;3.83;0.93;;;20.60;93.60;;;;;;5043991;28;20096;-58
2023/05/11 04:40:11;;;;;;;2.78;1.15;;;20.50;94.00;;;;;;5022117;28;20434;-59
2023/05/11 04:42:39;;;;;;;6.57;0.80;;;20.50;93.40;;;;;;5035025;28;20028;-60
2023/05/11 04:45:07;;;;;;;2.33;0.65;;;20.50;93.30;;;;;;5043578;28;20108;-58
2023/05/11 04:47:34;;;;;;;3.15;0.82;;;20.50;92.80;;;;;;5037657;28;20041;-58
2023/05/11 04:50:02;;;;;;;1.30;0.70;;;20.50;93.30;;;;;;5046857;28;20021;-59
2023/05/11 04:52:29;;;;;;;3.70;0.75;;;20.40;93.30;;;;;;5021708;28;20455;-61
2023/05/11 04:54:57;;;;;;;5.80;1.48;;;20.40;94.50;;;;;;5033544;28;20034;-60
2023/05/11 04:57:24;;;;;;;2.92;0.80;;;20.40;95.10;;;;;;5047537;28;20025;-59
2023/05/11 04:59:52;;;;;;;6.57;1.10;;;20.40;95.40;;;;;;5020729;28;20052;-59
2023/05/11 05:02:19;;;;;;;2.00;1.30;;;20.30;95.10;;;;;;5048024;28;20445;-59
2023/05/11 05:04:47;;;;;;;5.18;0.90;;;20.30;94.80;;;;;;5047708;28;20021;-59
2023/05/11 05:07:14;;;;;;;4.35;0.80;;;20.30;95.30;;;;;;5046231;28;20029;-60
2023/05/11 05:09:42;;;;;;;3.80;1.30;;;20.20;95.00;;;;;;5017614;28;20398;-59
2023/05/11 05:12:09;;;;;;;5.43;0.93;;;20.10;95.70;;;;;;5040936;28;20025;-61
2023/05/11 05:14:37;;;;;;;4.32;0.88;;;20.10;96.20;;;;;;5026532;28;20124;-59
2023/05/11 05:17:05;;;;;;;4.25;0.80;;;20.10;96.00;;;;;;5052649;28;20676;-60
2023/05/11 05:19:32;;;;;;;2.55;1.02;;;20.10;96.40;;;;;;5034337;28;20021;-59
2023/05/11 05:21:59;;;;;;;2.70;0.60;;;20.10;95.90;;;;;;5041846;28;20021;-59
2023/05/11 05:24:27;;;;;;;2.63;0.68;;;20.00;95.90;;;;;;5041489;28;20028;-59
2023/05/11 05:26:54;;;;;;;3.88;1.63;;;19.90;96.50;;;;;;5021955;28;20036;-59
2023/05/11 05:29:22;;;;;;;3.40;1.25;;;19.90;97.10;;;;;;5036367;28;20026;-60
2023/05/11 05:31:49;;;;;;;2.85;0.85;;;19.90;97.80;;;;;;5044426;28;20385;-60
2023/05/11 05:34:17;;;;;;;6.97;1.05;;;19.80;97.70;;;;;;5030746;28;20025;-59
2023/05/11 05:36:44;;;;;;;2.20;0.90;;;19.70;99.30;;;;;;5043586;28;20032;-59
2023/05/11 05:39:12;;;;;;;2.88;0.82;;;19.70;99.70;;;;;;5043685;28;20112;-59
2023/05/11 05:41:41;;;;;;;3.15;0.88;;;19.60;99.40;;;;;;5041382;28;20013;-58
2023/05/11 05:44:08;;;;;;;4.35;0.95;;;19.60;99.90;;;;;;5050809;28;20035;-60
2023/05/11 05:46:36;;;;;;;5.65;0.77;;;19.60;99.90;;;;;;5053695;28;20047;-59
2023/05/11 05:49:03;;;;;;;2.67;1.30;;;19.40;99.90;;;;;;5023108;28;20518;-58
2023/05/11 05:51:31;;;;;;;2.00;0.90;;;19.40;99.90;;;;;;5027576;28;20081;-58
2023/05/11 05:53:59;;;;;;;4.80;1.10;;;19.40;99.90;;;;;;5021208;28;20110;-56
2023/05/11 05:56:26;;;;;;;8.95;2.45;;;19.40;99.90;;;;;;5022763;28;20025;-53
2023/05/11 05:58:54;;;;;;;5.10;1.33;;;19.40;99.90;;;;;;5024011;28;20026;-57
2023/05/11 06:01:22;;;;;;;2.33;0.73;;;19.40;99.90;;;;;;5040925;28;20100;-55
2023/05/11 06:03:50;;;;;;;4.97;1.08;;;19.30;99.90;;;;;;5025260;28;20026;-55
2023/05/11 06:06:18;;;;;;;4.35;1.30;;;19.20;99.90;;;;;;5019527;28;20029;-52
2023/05/11 06:08:45;;;;;;;3.45;1.10;;;19.10;99.90;;;;;;5021704;28;20044;-53
2023/05/11 06:11:13;;;;;;;4.80;1.02;;;19.00;99.90;;;;;;5030293;28;20028;-56
2023/05/11 06:13:40;;;;;;;4.88;1.88;;;18.90;99.90;;;;;;5018868;28;20506;-56
2023/05/11 06:16:08;;;;;;;3.55;1.17;;;18.90;99.90;;;;;;5015641;28;20037;-52
2023/05/11 06:18:35;;;;;;;4.00;0.93;;;18.80;99.90;;;;;;5027095;28;20025;-55
2023/05/11 06:21:03;;;;;;;2.13;0.70;;;18.70;99.90;;;;;;5027275;28;20021;-55
2023/05/11 06:23:30;;;;;;;4.93;1.08;;;18.60;99.90;;;;;;5024361;28;20037;-54
2023/05/11 06:25:57;;;;;;;4.82;0.73;;;18.50;99.90;;;;;;5023919;28;20030;-55
2023/05/11 06:28:25;;;;;;;5.22;1.10;;;18.40;99.90;;;;;;5026278;28;20041;-54
2023/05/11 06:30:57;;;;;;;3.50;1.13;;;18.30;99.90;;;;;;5031898;28;20620;-52
2023/05/11 06:33:25;;;;;;;3.65;0.82;;;18.20;99.90;;;;;;5026504;28;20072;-54
2023/05/11 06:35:52;;;;;;;2.65;0.85;;;18.10;99.90;;;;;;5022074;28;20026;-53
2023/05/11 06:38:19;;;;;;;6.05;0.93;;;18.00;99.90;;;;;;5019548;28;20029;-54
2023/05/11 06:40:51;;;;;;;3.05;0.90;;;17.90;99.90;;;;;;5017837;28;20025;-51
2023/05/11 06:43:18;;;;;;;6.25;1.30;;;17.80;99.90;;;;;;5021287;28;20029;-54
2023/05/11 06:45:46;;;;;;;7.53;1.52;;;17.60;99.90;;;;;;5018180;28;20025;-54
2023/05/11 06:48:13;;;;;;;3.80;0.90;;;17.50;99.90;;;;;;5029597;28;20045;-54
2023/05/11 06:50:41;;;;;;;4.32;1.30;;;17.30;99.90;;;;;;5024454;28;20029;-57
2023/05/11 06:53:09;;;;;;;3.22;1.20;;;17.20;99.90;;;;;;5013366;28;20383;-52
2023/05/11 06:55:37;;;;;;;8.52;1.70;;;17.10;99.90;;;;;;5025587;28;20060;-60
2023/05/11 06:58:04;;;;;;;3.35;1.15;;;16.90;99.90;;;;;;5020962;28;20022;-59
2023/05/11 07:00:31;;;;;;;5.28;1.05;;;16.80;99.90;;;;;;5028941;28;20393;-56
2023/05/11 07:02:59;;;;;;;2.92;1.05;;;16.70;99.90;;;;;;5012855;28;20037;-60
2023/05/11 07:05:26;;;;;;;5.50;1.05;;;16.50;99.90;;;;;;5024101;28;20644;-60
2023/05/11 07:07:54;;;;;;;5.88;1.02;;;16.40;99.90;;;;;;5017569;28;20029;-61
2023/05/11 07:10:21;;;;;;;5.03;0.90;;;16.20;99.90;;;;;;5020169;28;20025;-60
2023/05/11 07:12:49;;;;;;;1.58;0.75;;;16.10;99.90;;;;;;5017186;28;20029;-60
2023/05/11 07:15:17;;;;;;;2.40;0.80;;;15.90;99.90;;;;;;5028317;28;20474;-61
2023/05/11 07:17:46;;;;;;;5.30;1.15;;;15.80;99.90;;;;;;5025051;28;20128;-60
2023/05/11 07:20:14;;;;;;;4.72;1.50;;;15.80;99.90;;;;;;5018642;28;20092;-61
2023/05/11 07:22:41;;;;;;;2.70;1.40;;;15.90;99.90;;;;;;5021845;28;20037;-62
2023/05/11 07:25:09;;;;;;;6.32;1.80;;;15.80;99.90;;;;;;5024387;28;20419;-61
2023/05/11 07:27:37;;;;;;;7.22;1.60;;;15.70;99.90;;;;;;5040547;28;20048;-62
2023/05/11 07:30:05;;;;;;;7.00;1.38;;;15.60;99.90;;;;;;5021508;28;20141;-61
2023/05/11 07:32:33;;;;;;;6.40;1.73;;;15.60;99.90;;;;;;5031228;28;20020;-60
2023/05/11 07:35:01;;;;;;;7.72;1.42;;;15.50;99.90;;;;;;5032249;28;20021;-60
2023/05/11 07:37:28;;;;;;;10.05;1.73;;;15.80;99.90;;;;;;5040719;28;20022;-60
2023/05/11 07:39:55;;;;;;;6.00;1.80;;;16.00;99.90;;;;;;5023268;28;20025;-60
2023/05/11 07:42:23;;;;;;;8.38;2.22;;;16.00;99.90;;;;;;5019579;28;20030;-60
2023/05/11 07:44:50;;;;;;;10.15;2.75;;;16.20;99.90;;;;;;5023647;28;20526;-61
2023/05/11 07:47:19;;;;;;;10.38;2.08;;;16.30;99.90;;;;;;5026010;28;20079;-60
2023/05/11 07:49:47;;;;;;;7.13;1.75;;;16.20;99.90;;;;;;5046956;28;20481;-60
2023/05/11 07:52:15;;;;;;;10.10;2.20;;;16.30;99.90;;;;;;5038494;28;20043;-61
2023/05/11 07:54:43;;;;;;;9.43;3.50;;;16.20;99.90;;;;;;5039339;28;20456;-60
2023/05/11 07:57:12;;;;;;;10.40;4.07;;;16.10;99.90;;;;;;5039733;28;20033;-61
2023/05/11 07:59:40;;;;;;;11.48;3.13;;;15.90;99.90;;;;;;5045221;28;20025;-61
2023/05/11 08:02:09;;;;;;;8.75;2.90;;;15.70;99.90;;;;;;5024184;28;20025;-62
2023/05/11 08:04:36;;;;;;;13.85;2.47;;;15.60;99.90;;;;;;5021836;28;20036;-66
2023/05/11 08:07:04;;;;;;;14.88;3.72;;;15.50;99.90;;;;;;5044039;28;20497;-59
2023/05/11 08:09:31;;;;;;;21.75;9.13;;;15.40;99.90;;;;;;5027578;28;20021;-59
2023/05/11 08:12:01;;;;;;;30.77;12.68;;;15.30;99.90;;;;;;5024118;28;20029;-60
2023/05/11 08:14:28;;;;;;;26.90;11.25;;;15.10;99.90;;;;;;5043767;28;20021;-59
2023/05/11 08:16:56;;;;;;;13.38;5.32;;;14.90;99.90;;;;;;5055980;28;20050;-59
2023/05/11 08:19:23;;;;;;;12.98;4.35;;;14.80;99.90;;;;;;5047898;28;20024;-59
2023/05/11 08:21:51;;;;;;;9.60;3.85;;;14.70;99.90;;;;;;5046428;28;20489;-59
2023/05/11 08:24:18;;;;;;;10.68;2.88;;;14.60;99.90;;;;;;5041111;28;20437;-59
2023/05/11 08:26:47;;;;;;;10.00;3.67;;;14.40;99.90;;;;;;5038555;28;20478;-59
2023/05/11 08:29:14;;;;;;;16.80;3.33;;;14.30;99.90;;;;;;5028097;28;20033;-59
2023/05/11 08:31:42;;;;;;;12.05;3.58;;;14.20;99.90;;;;;;5037330;28;20045;-59
2023/05/11 08:34:10;;;;;;;9.10;3.30;;;14.10;99.90;;;;;;5043216;28;20029;-60
2023/05/11 08:36:37;;;;;;;10.77;3.67;;;14.00;99.90;;;;;;5034744;28;20025;-61
2023/05/11 08:39:05;;;;;;;10.15;3.75;;;13.90;99.90;;;;;;5043189;28;20417;-59
2023/05/11 08:41:32;;;;;;;9.02;3.47;;;13.90;99.90;;;;;;5032190;28;20784;-59
2023/05/11 08:44:01;;;;;;;8.35;3.38;;;13.80;99.90;;;;;;5041242;28;20060;-59
2023/05/11 08:46:32;;;;;;;7.68;2.80;;;13.90;99.90;;;;;;5043298;28;20017;-59
2023/05/11 08:49:00;;;;;;;10.23;3.53;;;13.90;99.90;;;;;;5056533;28;20151;-59
2023/05/11 08:51:28;;;;;;;10.07;3.45;;;13.90;99.90;;;;;;5045370;28;20020;-59
2023/05/11 08:53:58;;;;;;;8.15;2.90;;;13.90;99.90;;;;;;5059738;28;20079;-61
2023/05/11 08:56:26;;;;;;;7.03;3.22;;;13.90;99.90;;;;;;5039379;28;20022;-60
2023/05/11 08:58:55;;;;;;;19.10;4.78;;;13.90;99.90;;;;;;5041405;28;20052;-60
2023/05/11 09:01:27;;;;;;;8.07;3.20;;;13.90;99.90;;;;;;5044997;28;20029;-60
2023/05/11 09:03:57;;;;;;;12.90;3.47;;;13.90;99.90;;;;;;5044941;28;20026;-60
2023/05/11 09:06:28;;;;;;;12.50;3.45;;;13.90;99.90;;;;;;5040660;28;20025;-60
2023/05/11 09:08:55;;;;;;;10.90;3.63;;;13.80;99.90;;;;;;5056205;28;20481;-59
2023/05/11 09:11:23;;;;;;;7.70;3.40;;;13.80;99.90;;;;;;5044006;28;20045;-60
2023/05/11 09:13:51;;;;;;;13.93;2.97;;;13.70;99.90;;;;;;5038140;28;20029;-59
2023/05/11 09:16:19;;;;;;;12.05;3.05;;;13.70;99.90;;;;;;5036091;28;20042;-60
2023/05/11 09:18:53;;;;;;;13.63;3.28;;;13.70;99.90;;;;;;5040339;28;20065;-59
2023/05/11 09:21:20;;;;;;;;;;;13.70;99.90;;;;;;5021228;28;20493;-60
2023/05/11 09:23:51;;;;;;;11.93;3.92;;;13.60;99.90;;;;;;5038840;28;19917;-60
2023/05/11 09:26:28;;;;;;;8.55;3.92;;;13.60;99.90;;;;;;5040629;28;20521;-60
2023/05/11 09:28:59;;;;;;;13.70;4.00;;;13.70;99.90;;;;;;5041127;28;20040;-59
2023/05/11 09:31:44;;;;;;;9.70;3.90;;;13.60;99.90;;;;;;5044898;28;20052;-59
2023/05/11 09:34:15;;;;;;;;;;;13.50;99.90;;;;;;5040608;28;20045;-60
2023/05/11 09:36:53;;;;;;;13.00;4.32;;;13.40;99.90;;;;;;5047899;28;20551;-60
2023/05/11 09:39:37;;;;;;;15.55;4.60;;;13.20;99.90;;;;;;5047889;28;20112;-59
2023/05/11 09:42:18;;;;;;;19.73;4.57;;;13.10;99.90;;;;;;5041691;28;20038;-59
2023/05/11 09:44:47;;;;;;;11.00;3.50;;;13.00;99.90;;;;;;5046626;28;20036;-60
2023/05/11 09:47:21;;;;;;;11.43;4.90;;;12.80;99.90;;;;;;5045178;28;20120;-59
2023/05/11 09:49:49;;;;;;;8.27;3.60;;;12.70;99.90;;;;;;5033180;28;20018;-59
2023/05/11 09:52:19;;;;;;;10.98;3.95;;;12.60;99.90;;;;;;5043612;28;20045;-59
2023/05/11 09:54:49;;;;;;;9.27;4.05;;;12.50;99.90;;;;;;5060495;28;20064;-59
2023/05/11 09:57:29;;;;;;;12.50;3.65;;;12.40;99.90;;;;;;5045314;28;20383;-59
2023/05/11 10:00:00;;;;;;;11.15;3.72;;;12.40;99.90;;;;;;5034138;28;20130;-59
2023/05/11 10:02:32;;;;;;;9.18;3.55;;;12.30;99.90;;;;;;5035883;28;20032;-60
2023/05/11 10:05:01;;;;;;;10.85;3.47;;;12.20;99.90;;;;;;5045055;28;20119;-60
2023/05/11 10:07:32;;;;;;;11.45;3.75;;;12.20;99.90;;;;;;5031635;28;20084;-59
2023/05/11 10:10:05;;;;;;;17.20;4.80;;;12.10;99.90;;;;;;5038404;28;20025;-59
2023/05/11 10:12:36;;;;;;;13.70;4.40;;;12.10;99.90;;;;;;5040126;28;20025;-60
2023/05/11 10:15:06;;;;;;;12.23;4.13;;;12.10;99.90;;;;;;5019669;28;20045;-60
2023/05/11 10:17:35;;;;;;;14.65;4.45;;;12.10;99.90;;;;;;5042759;28;20025;-59
2023/05/11 10:20:05;;;;;;;19.08;5.85;;;12.10;99.90;;;;;;5043449;28;20505;-59
2023/05/11 10:22:32;;;;;;;17.33;5.93;;;12.10;99.90;;;;;;5036573;28;20022;-60
2023/05/11 10:25:01;;;;;;;16.33;4.75;;;12.10;99.90;;;;;;5045277;28;20033;-61
2023/05/11 10:27:28;;;;;;;21.17;5.80;;;12.10;99.90;;;;;;5041213;28;20081;-59
2023/05/11 10:29:57;;;;;;;21.77;5.35;;;12.10;99.90;;;;;;5044489;28;20032;-59
2023/05/11 10:32:25;;;;;;;18.95;6.35;;;12.10;99.90;;;;;;5026395;28;20029;-59
2023/05/11 10:34:54;;;;;;;17.77;4.65;;;12.00;99.90;;;;;;5040758;28;20033;-60
2023/05/11 10:37:23;;;;;;;16.95;6.00;;;12.00;99.90;;;;;;5040573;28;20104;-59
2023/05/11 10:39:51;;;;;;;18.60;6.70;;;11.90;99.90;;;;;;5046651;28;20118;-59
2023/05/11 10:42:18;;;;;;;13.82;5.20;;;11.90;99.90;;;;;;5026065;28;20025;-60
2023/05/11 10:44:58;;;;;;;12.45;5.53;;;11.80;99.90;;;;;;5028459;28;20071;-62
2023/05/11 10:48:02;;;;;;;17.02;4.90;;;11.70;99.90;;;;;;5039522;28;20406;-60
2023/05/11 10:51:00;;;;;;;14.82;5.35;;;11.70;99.90;;;;;;5040913;28;20119;-60
2023/05/11 10:53:31;;;;;;;9.18;4.80;;;11.60;99.90;;;;;;5042493;28;20113;-60
2023/05/11 10:56:05;;;;;;;12.68;4.90;;;11.60;99.90;;;;;;5035731;28;20025;-59
2023/05/11 10:58:55;;;;;;;12.82;4.45;;;11.60;99.90;;;;;;5024090;28;20040;-60
2023/05/11 11:01:34;;;;;;;18.80;5.78;;;11.50;99.90;;;;;;4997015;28;20043;-60
2023/05/11 11:04:04;;;;;;;11.70;5.10;;;11.50;99.90;;;;;;5043127;28;20587;-59
2023/05/11 11:06:37;;;;;;;17.42;6.15;;;11.50;99.90;;;;;;5033177;28;20029;-59
2023/05/11 11:09:07;;;;;;;12.00;5.47;;;11.40;99.90;;;;;;5036991;28;20499;-59
2023/05/11 11:11:41;;;;;;;13.35;5.05;;;11.40;99.90;;;;;;5017228;28;20026;-59
2023/05/11 11:14:10;;;;;;;16.27;5.63;;;11.40;99.90;;;;;;5021038;28;20044;-59
2023/05/11 11:16:39;;;;;;;14.50;5.20;;;11.30;99.90;;;;;;5045789;28;20325;-64
2023/05/11 11:19:32;;;;;;;16.00;5.05;;;11.30;99.90;;;;;;5023406;28;20035;-59
2023/05/11 11:22:01;;;;;;;24.70;5.55;;;11.20;99.90;;;;;;5036960;28;20036;-59
2023/05/11 11:24:37;;;;;;;11.80;4.95;;;11.20;99.90;;;;;;5034062;28;20501;-60
2023/05/11 11:27:09;;;;;;;12.23;4.43;;;11.20;99.90;;;;;;5040635;28;20822;-59
2023/05/11 11:29:38;;;;;;;11.73;4.47;;;11.10;99.90;;;;;;5041876;28;20766;-60
2023/05/11 11:32:25;;;;;;;10.95;4.30;;;11.10;99.90;;;;;;5043147;28;20051;-60
2023/05/11 11:34:52;;;;;;;8.73;4.78;;;11.00;99.90;;;;;;5032109;28;20040;-60
2023/05/11 11:37:22;;;;;;;14.40;5.90;;;10.90;99.90;;;;;;5021189;28;20056;-60
2023/05/11 11:39:53;;;;;;;13.70;4.78;;;10.90;99.90;;;;;;5039993;28;20024;-60
2023/05/11 11:42:42;;;;;;;14.98;4.63;;;10.90;99.90;;;;;;5034783;28;20492;-60
2023/05/11 11:45:31;;;;;;;13.07;5.38;;;10.90;99.90;;;;;;5030947;28;20466;-56
2023/05/11 11:48:10;;;;;;;13.55;5.20;;;10.80;99.90;;;;;;5019130;28;20672;-58
2023/05/11 11:50:38;;;;;;;12.70;4.25;;;10.80;99.90;;;;;;5046093;28;20047;-63
2023/05/11 11:53:09;;;;;;;16.80;5.20;;;10.80;99.90;;;;;;5030656;28;20431;-58
2023/05/11 11:56:25;;;;;;;10.55;5.07;;;10.70;99.90;;;;;;5030698;28;20083;-57
2023/05/11 11:58:52;;;;;;;;;;;10.70;99.90;;;;;;5019448;28;20056;-58
2023/05/11 12:01:22;;;;;;;11.93;4.63;;;10.70;99.90;;;;;;5042811;28;19956;-58
2023/05/11 12:04:05;;;;;;;16.23;5.40;;;10.60;99.90;;;;;;5021430;28;20033;-59
2023/05/11 12:06:39;;;;;;;14.15;5.45;;;10.60;99.90;;;;;;5037441;28;20526;-56
2023/05/11 12:09:08;;;;;;;16.92;5.78;;;10.70;99.90;;;;;;5012425;28;20196;-58
2023/05/11 12:11:36;;;;;;;14.68;5.68;;;10.60;99.90;;;;;;5042175;28;20031;-59
2023/05/11 12:14:05;;;;;;;15.85;6.25;;;10.60;99.90;;;;;;5038020;28;20541;-57
2023/05/11 12:16:33;;;;;;;25.70;5.72;;;10.60;99.90;;;;;;5041967;28;20029;-58
2023/05/11 12:19:01;;;;;;;10.52;5.10;;;10.60;99.90;;;;;;5040226;28;20055;-58
2023/05/11 12:21:33;;;;;;;17.17;5.72;;;10.60;99.90;;;;;;5042136;28;20025;-58
2023/05/11 12:24:05;;;;;;;11.55;4.63;;;10.50;99.90;;;;;;5044545;28;20037;-59
2023/05/11 12:26:36;;;;;;;9.70;4.70;;;10.40;99.90;;;;;;5016336;28;20025;-59
2023/05/11 12:29:14;;;;;;;11.02;5.18;;;10.40;99.90;;;;;;5022280;28;20462;-59
2023/05/11 12:31:46;;;;;;;11.93;4.55;;;10.40;99.90;;;;;;5041322;28;20021;-58
2023/05/11 12:34:17;;;;;;;12.30;4.00;;;10.40;99.90;;;;;;5032123;28;21662;-58
2023/05/11 12:36:46;;;;;;;11.98;5.07;;;10.40;99.90;;;;;;5026588;28;20569;-59
2023/05/11 12:39:24;;;;;;;11.05;4.10;;;10.30;99.90;;;;;;5033705;28;20486;-59
2023/05/11 12:41:55;;;;;;;10.57;4.32;;;10.20;99.90;;;;;;5046100;28;20029;-59
2023/05/11 12:44:27;;;;;;;11.88;4.85;;;10.10;99.90;;;;;;5031683;28;20037;-58
2023/05/11 12:46:54;;;;;;;12.05;4.97;;;10.10;99.90;;;;;;5044879;28;20035;-58
2023/05/11 12:49:24;;;;;;;10.38;4.47;;;10.10;99.90;;;;;;5017234;28;20069;-59
2023/05/11 12:51:55;;;;;;;20.23;4.95;;;10.10;99.90;;;;;;5026332;28;20025;-58
2023/05/11 12:54:31;;;;;;;11.82;4.97;;;10.00;99.90;;;;;;5064149;28;20809;-58
2023/05/11 12:57:00;;;;;;;9.38;4.57;;;9.90;99.90;;;;;;5059706;28;20074;-59
2023/05/11 12:59:31;;;;;;;10.55;4.60;;;9.90;99.90;;;;;;5026212;28;20040;-59